AL44 weather

Cullman Medical Center Heliport
Cullman, Alabama, United States

Public forecast

Using degrees Fahrenheit for public forecast. Weather courtesy of forecast.io.

Closest aviation weather report (METAR) to Cullman Medical Center Heliport

Closest report is Cullman Regional Airport-Folsom Field, 5.8 nm (10.8 km) N. Retrieved 2019/10/21 16:35 UTC (0 seconds ago):

KCMD 211635Z AUTO 19007KT 10SM BKN017 BKN023 OVC041 22/18 A2996 RMK AO2 T02150175

Closest aviation forecast (TAF) to Cullman Medical Center Heliport

Closest forecast is Huntsville International Carl T Jones Field, 28.1 nm (52.1 km) N. Retrieved 2019/10/21 12:22 UTC (4 hours ago):

TAF KHSV 211120Z 2112/2212 15010KT P6SM SCT050 BKN250 FM211600 17014G20KT P6SM SCT040 BKN100 FM212000 18015G23KT 4SM SHRA VCTS BKN008 OVC015CB FM220000 20010KT 4SM RA OVC008 FM220300 30008KT P6SM SCT015 BKN025 FM220700 32005KT P6SM SKC